Houma, Louisiana
Current Conditions -  °F | °C
As of 12:35 AM on Saturday 25 Oct 2014 (Local Time) from KHUM Reporting Station
Clear Clear  
Wind Chill: 57°   Ceiling: Unl
Heat Index: 57°   Visibility: 10mi
Dew Point: 50°   Wind: 5mph
Humidity: 77%   Direction: 320°NW
Pressure: 30.1"   Gusts: NA
Location:  29.6°N, 90.72°W
Report Text: KHUM 250535Z AUTO 32004KT 10SM CLR 14/10 A3010 RMK AO2 T01400101
Loading
Personal Weather Stations






























Interactive Weather Map New forecast layout! Learn more

10-Day Weather Forecast

Advertisements
Track Severe Weather on mobile